sensor_id;sensor_type;location;lat;lon;timestamp;temperature;humidity
64843;DHT22;51310;52.198;5.422;2023-03-05T00:01:10;3.30;99.90
64843;DHT22;51310;52.198;5.422;2023-03-05T00:03:38;3.30;99.90
64843;DHT22;51310;52.198;5.422;2023-03-05T00:06:04;3.30;99.90
64843;DHT22;51310;52.198;5.422;2023-03-05T00:08:31;3.30;99.90
64843;DHT22;51310;52.198;5.422;2023-03-05T00:10:59;3.30;99.90
64843;DHT22;51310;52.198;5.422;2023-03-05T00:13:26;3.30;99.90
64843;DHT22;51310;52.198;5.422;2023-03-05T00:15:53;3.30;99.90
64843;DHT22;51310;52.198;5.422;2023-03-05T00:18:20;3.30;99.90
64843;DHT22;51310;52.198;5.422;2023-03-05T00:20:47;3.30;99.90
64843;DHT22;51310;52.198;5.422;2023-03-05T00:23:13;3.30;99.90
64843;DHT22;51310;52.198;5.422;2023-03-05T00:25:39;3.30;99.90
64843;DHT22;51310;52.198;5.422;2023-03-05T00:28:06;3.10;99.90
64843;DHT22;51310;52.198;5.422;2023-03-05T00:30:33;3.10;99.90
64843;DHT22;51310;52.198;5.422;2023-03-05T00:33:00;3.10;99.90
64843;DHT22;51310;52.198;5.422;2023-03-05T00:35:26;3.10;99.90
64843;DHT22;51310;52.198;5.422;2023-03-05T00:37:52;3.10;99.90
64843;DHT22;51310;52.198;5.422;2023-03-05T00:40:18;3.10;99.90
64843;DHT22;51310;52.198;5.422;2023-03-05T00:42:44;3.10;99.90
64843;DHT22;51310;52.198;5.422;2023-03-05T00:45:10;3.10;99.90
64843;DHT22;51310;52.198;5.422;2023-03-05T00:47:37;3.10;99.90
64843;DHT22;51310;52.198;5.422;2023-03-05T00:50:04;3.00;99.90
64843;DHT22;51310;52.198;5.422;2023-03-05T00:52:32;3.10;99.90
64843;DHT22;51310;52.198;5.422;2023-03-05T00:54:58;3.00;99.90
64843;DHT22;51310;52.198;5.422;2023-03-05T00:57:23;3.00;99.90
64843;DHT22;51310;52.198;5.422;2023-03-05T00:59:49;3.00;99.90
64843;DHT22;51310;52.198;5.422;2023-03-05T01:02:15;3.00;99.90
64843;DHT22;51310;52.198;5.422;2023-03-05T01:04:40;3.00;99.90
64843;DHT22;51310;52.198;5.422;2023-03-05T01:07:13;3.00;99.90
64843;DHT22;51310;52.198;5.422;2023-03-05T01:09:39;3.00;99.90
64843;DHT22;51310;52.198;5.422;2023-03-05T01:12:05;2.90;99.90
64843;DHT22;51310;52.198;5.422;2023-03-05T01:14:31;3.00;99.90
64843;DHT22;51310;52.198;5.422;2023-03-05T01:16:57;3.00;99.90
64843;DHT22;51310;52.198;5.422;2023-03-05T01:19:22;2.90;99.90
64843;DHT22;51310;52.198;5.422;2023-03-05T01:21:48;2.90;99.90
64843;DHT22;51310;52.198;5.422;2023-03-05T01:24:13;2.90;99.90
64843;DHT22;51310;52.198;5.422;2023-03-05T01:26:39;2.90;99.90
64843;DHT22;51310;52.198;5.422;2023-03-05T01:29:05;2.90;99.90
64843;DHT22;51310;52.198;5.422;2023-03-05T01:31:30;2.90;99.90
64843;DHT22;51310;52.198;5.422;2023-03-05T01:33:56;2.90;99.90
64843;DHT22;51310;52.198;5.422;2023-03-05T01:36:24;2.90;99.90
64843;DHT22;51310;52.198;5.422;2023-03-05T01:38:50;2.80;99.90
64843;DHT22;51310;52.198;5.422;2023-03-05T01:41:17;2.80;99.90
64843;DHT22;51310;52.198;5.422;2023-03-05T01:43:45;2.80;99.90
64843;DHT22;51310;52.198;5.422;2023-03-05T01:46:31;2.80;99.90
64843;DHT22;51310;52.198;5.422;2023-03-05T01:51:39;2.80;99.90
64843;DHT22;51310;52.198;5.422;2023-03-05T01:54:11;2.80;99.90
64843;DHT22;51310;52.198;5.422;2023-03-05T01:56:40;2.80;99.90
64843;DHT22;51310;52.198;5.422;2023-03-05T01:59:06;2.80;99.90
64843;DHT22;51310;52.198;5.422;2023-03-05T02:01:39;2.80;99.90
64843;DHT22;51310;52.198;5.422;2023-03-05T02:04:14;2.80;99.90
64843;DHT22;51310;52.198;5.422;2023-03-05T02:06:42;2.80;99.90
64843;DHT22;51310;52.198;5.422;2023-03-05T02:09:09;2.80;99.90
64843;DHT22;51310;52.198;5.422;2023-03-05T02:11:35;2.80;99.90
64843;DHT22;51310;52.198;5.422;2023-03-05T02:14:02;2.80;99.90
64843;DHT22;51310;52.198;5.422;2023-03-05T02:16:29;2.80;99.90
64843;DHT22;51310;52.198;5.422;2023-03-05T02:19:03;2.80;99.90
64843;DHT22;51310;52.198;5.422;2023-03-05T02:21:46;2.80;99.90
64843;DHT22;51310;52.198;5.422;2023-03-05T02:24:30;2.80;99.90
64843;DHT22;51310;52.198;5.422;2023-03-05T02:26:59;2.80;99.90
64843;DHT22;51310;52.198;5.422;2023-03-05T02:29:27;2.80;99.90
64843;DHT22;51310;52.198;5.422;2023-03-05T02:31:54;2.70;99.90
64843;DHT22;51310;52.198;5.422;2023-03-05T02:34:21;2.70;99.90
64843;DHT22;51310;52.198;5.422;2023-03-05T02:36:48;2.70;99.90
64843;DHT22;51310;52.198;5.422;2023-03-05T02:39:15;2.80;99.90
64843;DHT22;51310;52.198;5.422;2023-03-05T02:41:41;2.70;99.90
64843;DHT22;51310;52.198;5.422;2023-03-05T02:44:08;2.80;99.90
64843;DHT22;51310;52.198;5.422;2023-03-05T02:46:34;2.80;99.90
64843;DHT22;51310;52.198;5.422;2023-03-05T02:49:00;2.80;99.90
64843;DHT22;51310;52.198;5.422;2023-03-05T02:51:25;2.80;99.90
64843;DHT22;51310;52.198;5.422;2023-03-05T02:53:51;2.80;99.90
64843;DHT22;51310;52.198;5.422;2023-03-05T02:56:17;2.80;99.90
64843;DHT22;51310;52.198;5.422;2023-03-05T02:58:42;2.80;99.90
64843;DHT22;51310;52.198;5.422;2023-03-05T03:01:08;2.80;99.90
64843;DHT22;51310;52.198;5.422;2023-03-05T03:03:35;2.70;99.90
64843;DHT22;51310;52.198;5.422;2023-03-05T03:06:01;2.70;99.90
64843;DHT22;51310;52.198;5.422;2023-03-05T03:08:27;2.70;99.90
64843;DHT22;51310;52.198;5.422;2023-03-05T03:10:53;2.70;99.90
64843;DHT22;51310;52.198;5.422;2023-03-05T03:13:22;2.60;99.90
64843;DHT22;51310;52.198;5.422;2023-03-05T03:15:49;2.60;99.90
64843;DHT22;51310;52.198;5.422;2023-03-05T03:18:14;2.60;99.90
64843;DHT22;51310;52.198;5.422;2023-03-05T03:20:40;2.60;99.90
64843;DHT22;51310;52.198;5.422;2023-03-05T03:23:06;2.60;99.90
64843;DHT22;51310;52.198;5.422;2023-03-05T03:25:32;2.60;99.90
64843;DHT22;51310;52.198;5.422;2023-03-05T03:27:58;2.50;99.90
64843;DHT22;51310;52.198;5.422;2023-03-05T03:30:24;2.60;99.90
64843;DHT22;51310;52.198;5.422;2023-03-05T03:32:51;2.60;99.90
64843;DHT22;51310;52.198;5.422;2023-03-05T03:35:16;2.50;99.90
64843;DHT22;51310;52.198;5.422;2023-03-05T03:37:42;2.50;99.90
64843;DHT22;51310;52.198;5.422;2023-03-05T03:40:09;2.60;99.90
64843;DHT22;51310;52.198;5.422;2023-03-05T03:42:35;2.60;99.90
64843;DHT22;51310;52.198;5.422;2023-03-05T03:45:01;2.60;99.90
64843;DHT22;51310;52.198;5.422;2023-03-05T03:47:28;2.60;99.90
64843;DHT22;51310;52.198;5.422;2023-03-05T03:49:55;2.50;99.90
64843;DHT22;51310;52.198;5.422;2023-03-05T03:52:23;2.50;99.90
64843;DHT22;51310;52.198;5.422;2023-03-05T03:54:49;2.50;99.90
64843;DHT22;51310;52.198;5.422;2023-03-05T03:57:16;2.50;99.90
64843;DHT22;51310;52.198;5.422;2023-03-05T03:59:42;2.50;99.90
64843;DHT22;51310;52.198;5.422;2023-03-05T04:02:09;2.50;99.90
64843;DHT22;51310;52.198;5.422;2023-03-05T04:04:35;2.50;99.90
64843;DHT22;51310;52.198;5.422;2023-03-05T04:07:01;2.50;99.90
64843;DHT22;51310;52.198;5.422;2023-03-05T04:09:26;2.50;99.90
64843;DHT22;51310;52.198;5.422;2023-03-05T04:11:52;2.50;99.90
64843;DHT22;51310;52.198;5.422;2023-03-05T04:14:18;2.50;99.90
64843;DHT22;51310;52.198;5.422;2023-03-05T04:16:43;2.50;99.90
64843;DHT22;51310;52.198;5.422;2023-03-05T04:19:09;2.40;99.90
64843;DHT22;51310;52.198;5.422;2023-03-05T04:21:35;2.40;99.90
64843;DHT22;51310;52.198;5.422;2023-03-05T04:24:01;2.40;99.90
64843;DHT22;51310;52.198;5.422;2023-03-05T04:26:26;2.40;99.90
64843;DHT22;51310;52.198;5.422;2023-03-05T04:28:52;2.40;99.90
64843;DHT22;51310;52.198;5.422;2023-03-05T04:31:18;2.40;99.90
64843;DHT22;51310;52.198;5.422;2023-03-05T04:33:44;2.40;99.90
64843;DHT22;51310;52.198;5.422;2023-03-05T04:36:10;2.40;99.90
64843;DHT22;51310;52.198;5.422;2023-03-05T04:38:36;2.30;99.90
64843;DHT22;51310;52.198;5.422;2023-03-05T04:41:02;2.30;99.90
64843;DHT22;51310;52.198;5.422;2023-03-05T04:43:27;2.30;99.90
64843;DHT22;51310;52.198;5.422;2023-03-05T04:45:54;2.20;99.90
64843;DHT22;51310;52.198;5.422;2023-03-05T04:48:20;2.10;99.90
64843;DHT22;51310;52.198;5.422;2023-03-05T04:50:45;2.00;99.90
64843;DHT22;51310;52.198;5.422;2023-03-05T04:53:11;2.00;99.90
64843;DHT22;51310;52.198;5.422;2023-03-05T04:55:37;1.90;99.90
64843;DHT22;51310;52.198;5.422;2023-03-05T04:58:03;1.90;99.90
64843;DHT22;51310;52.198;5.422;2023-03-05T05:00:28;1.80;99.90
64843;DHT22;51310;52.198;5.422;2023-03-05T05:02:54;1.80;99.90
64843;DHT22;51310;52.198;5.422;2023-03-05T05:05:22;1.80;99.90
64843;DHT22;51310;52.198;5.422;2023-03-05T05:07:56;1.70;99.90
64843;DHT22;51310;52.198;5.422;2023-03-05T05:10:24;1.80;99.90
64843;DHT22;51310;52.198;5.422;2023-03-05T05:12:51;1.80;99.90
64843;DHT22;51310;52.198;5.422;2023-03-05T05:15:17;1.80;99.90
64843;DHT22;51310;52.198;5.422;2023-03-05T05:17:42;1.80;99.90
64843;DHT22;51310;52.198;5.422;2023-03-05T05:20:10;1.80;99.90
64843;DHT22;51310;52.198;5.422;2023-03-05T05:22:38;1.80;99.90
64843;DHT22;51310;52.198;5.422;2023-03-05T05:25:04;1.80;99.90
64843;DHT22;51310;52.198;5.422;2023-03-05T05:27:30;1.80;99.90
64843;DHT22;51310;52.198;5.422;2023-03-05T05:29:56;1.90;99.90
64843;DHT22;51310;52.198;5.422;2023-03-05T05:32:23;1.90;99.90
64843;DHT22;51310;52.198;5.422;2023-03-05T05:34:54;1.90;99.90
64843;DHT22;51310;52.198;5.422;2023-03-05T05:37:21;1.90;99.90
64843;DHT22;51310;52.198;5.422;2023-03-05T05:39:47;1.90;99.90
64843;DHT22;51310;52.198;5.422;2023-03-05T05:42:20;2.00;99.90
64843;DHT22;51310;52.198;5.422;2023-03-05T05:44:47;2.00;99.90
64843;DHT22;51310;52.198;5.422;2023-03-05T05:47:14;2.10;99.90
64843;DHT22;51310;52.198;5.422;2023-03-05T05:49:41;2.10;99.90
64843;DHT22;51310;52.198;5.422;2023-03-05T05:52:08;2.20;99.90
64843;DHT22;51310;52.198;5.422;2023-03-05T05:54:34;2.20;99.90
64843;DHT22;51310;52.198;5.422;2023-03-05T05:56:59;2.20;99.90
64843;DHT22;51310;52.198;5.422;2023-03-05T05:59:25;2.20;99.90
64843;DHT22;51310;52.198;5.422;2023-03-05T06:01:51;2.20;99.90
64843;DHT22;51310;52.198;5.422;2023-03-05T06:04:17;2.20;99.90
64843;DHT22;51310;52.198;5.422;2023-03-05T06:06:43;2.20;99.90
64843;DHT22;51310;52.198;5.422;2023-03-05T06:09:08;2.20;99.90
64843;DHT22;51310;52.198;5.422;2023-03-05T06:11:34;2.20;99.90
64843;DHT22;51310;52.198;5.422;2023-03-05T06:14:02;2.10;99.90
64843;DHT22;51310;52.198;5.422;2023-03-05T06:16:28;2.10;99.90
64843;DHT22;51310;52.198;5.422;2023-03-05T06:18:54;2.10;99.90
64843;DHT22;51310;52.198;5.422;2023-03-05T06:21:21;2.10;99.90
64843;DHT22;51310;52.198;5.422;2023-03-05T06:23:48;2.00;99.90
64843;DHT22;51310;52.198;5.422;2023-03-05T06:26:16;2.00;99.90
64843;DHT22;51310;52.198;5.422;2023-03-05T06:28:44;1.90;99.90
64843;DHT22;51310;52.198;5.422;2023-03-05T06:31:12;1.90;99.90
64843;DHT22;51310;52.198;5.422;2023-03-05T06:33:40;1.90;99.90
64843;DHT22;51310;52.198;5.422;2023-03-05T06:36:08;1.80;99.90
64843;DHT22;51310;52.198;5.422;2023-03-05T06:38:38;1.80;99.90
64843;DHT22;51310;52.198;5.422;2023-03-05T06:41:06;1.70;99.90
64843;DHT22;51310;52.198;5.422;2023-03-05T06:43:35;1.70;99.90
64843;DHT22;51310;52.198;5.422;2023-03-05T06:46:08;1.70;99.90
64843;DHT22;51310;52.198;5.422;2023-03-05T06:48:36;1.80;99.90
64843;DHT22;51310;52.198;5.422;2023-03-05T06:51:02;1.80;99.90
64843;DHT22;51310;52.198;5.422;2023-03-05T06:53:29;1.80;99.90
64843;DHT22;51310;52.198;5.422;2023-03-05T06:55:55;1.80;99.90
64843;DHT22;51310;52.198;5.422;2023-03-05T06:58:21;1.80;99.90
64843;DHT22;51310;52.198;5.422;2023-03-05T07:00:48;1.80;99.90
64843;DHT22;51310;52.198;5.422;2023-03-05T07:03:13;1.80;99.90
64843;DHT22;51310;52.198;5.422;2023-03-05T07:05:40;1.90;99.90
64843;DHT22;51310;52.198;5.422;2023-03-05T07:08:08;2.00;99.90
64843;DHT22;51310;52.198;5.422;2023-03-05T07:10:38;2.10;99.90
64843;DHT22;51310;52.198;5.422;2023-03-05T07:13:06;2.10;99.90
64843;DHT22;51310;52.198;5.422;2023-03-05T07:15:32;2.20;99.90
64843;DHT22;51310;52.198;5.422;2023-03-05T07:17:58;2.30;99.90
64843;DHT22;51310;52.198;5.422;2023-03-05T07:20:24;2.30;99.90
64843;DHT22;51310;52.198;5.422;2023-03-05T07:22:50;2.40;99.90
64843;DHT22;51310;52.198;5.422;2023-03-05T07:25:16;2.50;99.90
64843;DHT22;51310;52.198;5.422;2023-03-05T07:27:46;2.50;99.90
64843;DHT22;51310;52.198;5.422;2023-03-05T07:30:13;2.60;99.90
64843;DHT22;51310;52.198;5.422;2023-03-05T07:32:39;2.70;99.90
64843;DHT22;51310;52.198;5.422;2023-03-05T07:35:06;2.70;99.90
64843;DHT22;51310;52.198;5.422;2023-03-05T07:37:32;2.70;99.90
64843;DHT22;51310;52.198;5.422;2023-03-05T07:39:58;2.70;99.90
64843;DHT22;51310;52.198;5.422;2023-03-05T07:42:24;2.80;99.90
64843;DHT22;51310;52.198;5.422;2023-03-05T07:44:50;2.80;99.90
64843;DHT22;51310;52.198;5.422;2023-03-05T07:47:16;2.80;99.90
64843;DHT22;51310;52.198;5.422;2023-03-05T07:49:41;2.90;99.90
64843;DHT22;51310;52.198;5.422;2023-03-05T07:52:08;2.90;99.90
64843;DHT22;51310;52.198;5.422;2023-03-05T07:54:34;2.90;99.90
64843;DHT22;51310;52.198;5.422;2023-03-05T07:57:03;2.90;99.90
64843;DHT22;51310;52.198;5.422;2023-03-05T07:59:30;2.90;99.90
64843;DHT22;51310;52.198;5.422;2023-03-05T08:01:57;2.90;99.90
64843;DHT22;51310;52.198;5.422;2023-03-05T08:04:23;3.00;99.90
64843;DHT22;51310;52.198;5.422;2023-03-05T08:06:49;3.00;99.90
64843;DHT22;51310;52.198;5.422;2023-03-05T08:09:18;3.10;99.90
64843;DHT22;51310;52.198;5.422;2023-03-05T08:11:45;3.10;99.90
64843;DHT22;51310;52.198;5.422;2023-03-05T08:14:11;3.10;99.90
64843;DHT22;51310;52.198;5.422;2023-03-05T08:16:37;3.20;99.90
64843;DHT22;51310;52.198;5.422;2023-03-05T08:19:03;3.20;99.90
64843;DHT22;51310;52.198;5.422;2023-03-05T08:21:34;3.20;99.90
64843;DHT22;51310;52.198;5.422;2023-03-05T08:24:02;3.20;99.90
64843;DHT22;51310;52.198;5.422;2023-03-05T08:26:34;3.30;99.90
64843;DHT22;51310;52.198;5.422;2023-03-05T08:29:03;3.30;99.90
64843;DHT22;51310;52.198;5.422;2023-03-05T08:31:30;3.50;99.90
64843;DHT22;51310;52.198;5.422;2023-03-05T08:33:58;3.60;99.90
64843;DHT22;51310;52.198;5.422;2023-03-05T08:36:25;3.60;99.90
64843;DHT22;51310;52.198;5.422;2023-03-05T08:38:52;3.70;99.90
64843;DHT22;51310;52.198;5.422;2023-03-05T08:41:18;3.80;99.90
64843;DHT22;51310;52.198;5.422;2023-03-05T08:43:44;3.90;99.90
64843;DHT22;51310;52.198;5.422;2023-03-05T08:46:11;3.90;99.90
64843;DHT22;51310;52.198;5.422;2023-03-05T08:48:38;4.00;99.90
64843;DHT22;51310;52.198;5.422;2023-03-05T08:51:10;4.10;99.90
64843;DHT22;51310;52.198;5.422;2023-03-05T08:53:38;4.10;99.90
64843;DHT22;51310;52.198;5.422;2023-03-05T08:56:05;4.20;99.90
64843;DHT22;51310;52.198;5.422;2023-03-05T08:58:31;4.20;99.90
64843;DHT22;51310;52.198;5.422;2023-03-05T09:00:57;4.20;99.90
64843;DHT22;51310;52.198;5.422;2023-03-05T09:03:23;4.20;99.90
64843;DHT22;51310;52.198;5.422;2023-03-05T09:05:49;4.20;99.90
64843;DHT22;51310;52.198;5.422;2023-03-05T09:08:16;4.20;99.90
64843;DHT22;51310;52.198;5.422;2023-03-05T09:10:43;4.20;99.90
64843;DHT22;51310;52.198;5.422;2023-03-05T09:13:10;4.30;99.90
64843;DHT22;51310;52.198;5.422;2023-03-05T09:15:37;4.30;99.90
64843;DHT22;51310;52.198;5.422;2023-03-05T09:18:03;4.40;99.90
64843;DHT22;51310;52.198;5.422;2023-03-05T09:20:29;4.50;99.90
64843;DHT22;51310;52.198;5.422;2023-03-05T09:22:55;4.50;99.90
64843;DHT22;51310;52.198;5.422;2023-03-05T09:25:21;4.50;99.90
64843;DHT22;51310;52.198;5.422;2023-03-05T09:27:47;4.50;99.90
64843;DHT22;51310;52.198;5.422;2023-03-05T09:30:13;4.50;99.90
64843;DHT22;51310;52.198;5.422;2023-03-05T09:32:39;4.50;99.90
64843;DHT22;51310;52.198;5.422;2023-03-05T09:35:06;4.50;99.90
64843;DHT22;51310;52.198;5.422;2023-03-05T09:37:32;4.50;99.90
64843;DHT22;51310;52.198;5.422;2023-03-05T09:39:58;4.50;99.90
64843;DHT22;51310;52.198;5.422;2023-03-05T09:42:58;4.50;99.90
64843;DHT22;51310;52.198;5.422;2023-03-05T09:45:39;4.50;99.90
64843;DHT22;51310;52.198;5.422;2023-03-05T09:48:20;4.50;99.90
64843;DHT22;51310;52.198;5.422;2023-03-05T09:50:54;4.50;99.90
64843;DHT22;51310;52.198;5.422;2023-03-05T09:54:31;4.50;99.90
64843;DHT22;51310;52.198;5.422;2023-03-05T09:56:38;4.50;99.90
64843;DHT22;51310;52.198;5.422;2023-03-05T09:59:34;4.60;99.90
64843;DHT22;51310;52.198;5.422;2023-03-05T10:02:18;4.70;99.90
64843;DHT22;51310;52.198;5.422;2023-03-05T10:04:56;4.70;99.90
64843;DHT22;51310;52.198;5.422;2023-03-05T10:07:29;4.80;99.90
64843;DHT22;51310;52.198;5.422;2023-03-05T10:10:25;4.90;99.90
64843;DHT22;51310;52.198;5.422;2023-03-05T10:12:55;4.90;99.90
64843;DHT22;51310;52.198;5.422;2023-03-05T10:15:25;5.00;99.90
64843;DHT22;51310;52.198;5.422;2023-03-05T10:18:25;5.00;99.90
64843;DHT22;51310;52.198;5.422;2023-03-05T10:21:17;5.10;99.90
64843;DHT22;51310;52.198;5.422;2023-03-05T10:24:08;5.00;99.90
64843;DHT22;51310;52.198;5.422;2023-03-05T10:30:16;5.00;99.90
64843;DHT22;51310;52.198;5.422;2023-03-05T10:36:02;5.20;99.90
64843;DHT22;51310;52.198;5.422;2023-03-05T10:47:24;5.40;99.90
64843;DHT22;51310;52.198;5.422;2023-03-05T10:50:00;5.40;99.90
64843;DHT22;51310;52.198;5.422;2023-03-05T10:52:38;5.40;99.90
64843;DHT22;51310;52.198;5.422;2023-03-05T10:55:17;5.30;99.90
64843;DHT22;51310;52.198;5.422;2023-03-05T10:57:46;5.30;99.90
64843;DHT22;51310;52.198;5.422;2023-03-05T11:00:16;5.30;99.90
64843;DHT22;51310;52.198;5.422;2023-03-05T11:02:59;5.30;99.90
64843;DHT22;51310;52.198;5.422;2023-03-05T11:05:46;5.30;99.90
64843;DHT22;51310;52.198;5.422;2023-03-05T11:11:20;5.50;99.90
64843;DHT22;51310;52.198;5.422;2023-03-05T11:13:52;5.70;99.90
64843;DHT22;51310;52.198;5.422;2023-03-05T11:16:28;5.80;99.90
64843;DHT22;51310;52.198;5.422;2023-03-05T11:19:19;5.80;99.90
64843;DHT22;51310;52.198;5.422;2023-03-05T11:22:19;5.90;99.90
64843;DHT22;51310;52.198;5.422;2023-03-05T11:27:36;6.00;99.90
64843;DHT22;51310;52.198;5.422;2023-03-05T11:30:16;6.00;99.90
64843;DHT22;51310;52.198;5.422;2023-03-05T11:32:46;6.00;99.90
64843;DHT22;51310;52.198;5.422;2023-03-05T11:35:31;6.10;99.90
64843;DHT22;51310;52.198;5.422;2023-03-05T11:38:00;6.10;99.90
64843;DHT22;51310;52.198;5.422;2023-03-05T11:40:32;6.10;99.90
64843;DHT22;51310;52.198;5.422;2023-03-05T11:43:03;6.00;99.90
64843;DHT22;51310;52.198;5.422;2023-03-05T11:45:31;5.90;99.90
64843;DHT22;51310;52.198;5.422;2023-03-05T11:48:04;5.90;99.90
64843;DHT22;51310;52.198;5.422;2023-03-05T11:50:34;5.90;99.90
64843;DHT22;51310;52.198;5.422;2023-03-05T11:53:21;6.00;99.90
64843;DHT22;51310;52.198;5.422;2023-03-05T11:55:59;6.10;99.90
64843;DHT22;51310;52.198;5.422;2023-03-05T11:58:51;6.10;99.90
64843;DHT22;51310;52.198;5.422;2023-03-05T12:01:47;6.10;99.90
64843;DHT22;51310;52.198;5.422;2023-03-05T12:04:17;6.10;99.90
64843;DHT22;51310;52.198;5.422;2023-03-05T12:09:39;6.20;99.90
64843;DHT22;51310;52.198;5.422;2023-03-05T12:15:30;6.30;99.90
64843;DHT22;51310;52.198;5.422;2023-03-05T12:23:22;6.30;99.90
64843;DHT22;51310;52.198;5.422;2023-03-05T12:25:52;6.40;99.90
64843;DHT22;51310;52.198;5.422;2023-03-05T12:33:35;6.40;99.90
64843;DHT22;51310;52.198;5.422;2023-03-05T12:38:55;6.40;99.90
64843;DHT22;51310;52.198;5.422;2023-03-05T12:46:34;6.40;99.90
64843;DHT22;51310;52.198;5.422;2023-03-05T12:51:54;6.60;99.90
64843;DHT22;51310;52.198;5.422;2023-03-05T12:54:37;6.60;99.90
64843;DHT22;51310;52.198;5.422;2023-03-05T12:57:23;6.60;99.90
64843;DHT22;51310;52.198;5.422;2023-03-05T13:00:09;6.60;82.80
64843;DHT22;51310;52.198;5.422;2023-03-05T13:02:46;6.70;82.80
64843;DHT22;51310;52.198;5.422;2023-03-05T13:05:29;6.80;65.40
64843;DHT22;51310;52.198;5.422;2023-03-05T13:10:39;6.90;62.70
64843;DHT22;51310;52.198;5.422;2023-03-05T13:13:11;6.90;62.80
64843;DHT22;51310;52.198;5.422;2023-03-05T13:15:47;6.90;62.80
64843;DHT22;51310;52.198;5.422;2023-03-05T13:18:23;6.80;63.00
64843;DHT22;51310;52.198;5.422;2023-03-05T13:21:06;6.80;61.60
64843;DHT22;51310;52.198;5.422;2023-03-05T13:23:37;6.80;60.60
64843;DHT22;51310;52.198;5.422;2023-03-05T13:26:13;6.70;59.70
64843;DHT22;51310;52.198;5.422;2023-03-05T13:28:41;6.70;60.40
64843;DHT22;51310;52.198;5.422;2023-03-05T13:31:15;6.70;60.50
64843;DHT22;51310;52.198;5.422;2023-03-05T13:33:55;6.70;61.20
64843;DHT22;51310;52.198;5.422;2023-03-05T13:36:25;6.70;61.70
64843;DHT22;51310;52.198;5.422;2023-03-05T13:38:51;6.70;61.90
64843;DHT22;51310;52.198;5.422;2023-03-05T13:41:25;6.70;61.30
64843;DHT22;51310;52.198;5.422;2023-03-05T13:43:58;6.70;61.40
64843;DHT22;51310;52.198;5.422;2023-03-05T13:49:16;6.80;61.40
64843;DHT22;51310;52.198;5.422;2023-03-05T13:51:51;6.80;61.20
64843;DHT22;51310;52.198;5.422;2023-03-05T13:54:20;6.70;61.30
64843;DHT22;51310;52.198;5.422;2023-03-05T13:59:20;6.60;61.30
64843;DHT22;51310;52.198;5.422;2023-03-05T14:01:47;6.50;61.90
64843;DHT22;51310;52.198;5.422;2023-03-05T14:06:50;6.50;62.20
64843;DHT22;51310;52.198;5.422;2023-03-05T14:09:29;6.40;63.00
64843;DHT22;51310;52.198;5.422;2023-03-05T14:14:44;6.20;64.80
64843;DHT22;51310;52.198;5.422;2023-03-05T14:20:27;6.20;65.70
64843;DHT22;51310;52.198;5.422;2023-03-05T14:22:59;6.20;65.70
64843;DHT22;51310;52.198;5.422;2023-03-05T14:25:33;6.20;65.90
64843;DHT22;51310;52.198;5.422;2023-03-05T14:30:45;6.00;67.40
64843;DHT22;51310;52.198;5.422;2023-03-05T14:33:12;6.00;67.90
64843;DHT22;51310;52.198;5.422;2023-03-05T14:35:38;5.90;68.70
64843;DHT22;51310;52.198;5.422;2023-03-05T14:38:04;5.80;69.10
64843;DHT22;51310;52.198;5.422;2023-03-05T14:40:34;5.70;69.70
64843;DHT22;51310;52.198;5.422;2023-03-05T14:43:03;5.70;70.10
64843;DHT22;51310;52.198;5.422;2023-03-05T14:45:35;5.70;71.10
64843;DHT22;51310;52.198;5.422;2023-03-05T14:48:04;5.60;72.10
64843;DHT22;51310;52.198;5.422;2023-03-05T14:50:37;5.60;72.70
64843;DHT22;51310;52.198;5.422;2023-03-05T14:53:12;5.60;72.60
64843;DHT22;51310;52.198;5.422;2023-03-05T14:55:44;5.60;73.70
64843;DHT22;51310;52.198;5.422;2023-03-05T14:58:18;5.60;74.60
64843;DHT22;51310;52.198;5.422;2023-03-05T15:00:47;5.60;75.00
64843;DHT22;51310;52.198;5.422;2023-03-05T15:03:15;5.60;75.50
64843;DHT22;51310;52.198;5.422;2023-03-05T15:05:42;5.60;75.90
64843;DHT22;51310;52.198;5.422;2023-03-05T15:08:47;5.60;76.10
64843;DHT22;51310;52.198;5.422;2023-03-05T15:11:06;5.50;77.10
64843;DHT22;51310;52.198;5.422;2023-03-05T15:13:32;5.60;77.80
64843;DHT22;51310;52.198;5.422;2023-03-05T15:15:59;5.60;78.20
64843;DHT22;51310;52.198;5.422;2023-03-05T15:18:24;5.60;77.50
64843;DHT22;51310;52.198;5.422;2023-03-05T15:20:51;5.60;76.80
64843;DHT22;51310;52.198;5.422;2023-03-05T15:23:18;5.60;76.80
64843;DHT22;51310;52.198;5.422;2023-03-05T15:25:44;5.60;77.20
64843;DHT22;51310;52.198;5.422;2023-03-05T15:28:10;5.60;76.90
64843;DHT22;51310;52.198;5.422;2023-03-05T15:30:39;5.60;77.70
64843;DHT22;51310;52.198;5.422;2023-03-05T15:33:10;5.60;77.00
64843;DHT22;51310;52.198;5.422;2023-03-05T15:35:38;5.60;76.80
64843;DHT22;51310;52.198;5.422;2023-03-05T15:38:04;5.60;77.10
64843;DHT22;51310;52.198;5.422;2023-03-05T15:40:31;5.50;77.60
64843;DHT22;51310;52.198;5.422;2023-03-05T15:42:58;5.60;77.80
64843;DHT22;51310;52.198;5.422;2023-03-05T15:45:25;5.50;76.50
64843;DHT22;51310;52.198;5.422;2023-03-05T15:47:52;5.50;75.80
64843;DHT22;51310;52.198;5.422;2023-03-05T15:50:19;5.50;75.70
64843;DHT22;51310;52.198;5.422;2023-03-05T15:52:46;5.50;75.10
64843;DHT22;51310;52.198;5.422;2023-03-05T15:55:12;5.40;74.10
64843;DHT22;51310;52.198;5.422;2023-03-05T15:57:43;5.40;74.30
64843;DHT22;51310;52.198;5.422;2023-03-05T16:00:11;5.30;74.20
64843;DHT22;51310;52.198;5.422;2023-03-05T16:02:38;5.30;74.50
64843;DHT22;51310;52.198;5.422;2023-03-05T16:05:05;5.30;74.50
64843;DHT22;51310;52.198;5.422;2023-03-05T16:07:33;5.30;75.00
64843;DHT22;51310;52.198;5.422;2023-03-05T16:10:03;5.30;75.50
64843;DHT22;51310;52.198;5.422;2023-03-05T16:12:34;5.30;74.90
64843;DHT22;51310;52.198;5.422;2023-03-05T16:15:06;5.30;75.20
64843;DHT22;51310;52.198;5.422;2023-03-05T16:17:39;5.30;75.30
64843;DHT22;51310;52.198;5.422;2023-03-05T16:20:09;5.30;75.00
64843;DHT22;51310;52.198;5.422;2023-03-05T16:22:36;5.30;74.90
64843;DHT22;51310;52.198;5.422;2023-03-05T16:25:02;5.30;75.20
64843;DHT22;51310;52.198;5.422;2023-03-05T16:27:28;5.20;74.20
64843;DHT22;51310;52.198;5.422;2023-03-05T16:29:54;5.30;74.30
64843;DHT22;51310;52.198;5.422;2023-03-05T16:32:20;5.30;74.70
64843;DHT22;51310;52.198;5.422;2023-03-05T16:34:46;5.30;74.50
64843;DHT22;51310;52.198;5.422;2023-03-05T16:37:21;5.30;74.30
64843;DHT22;51310;52.198;5.422;2023-03-05T16:39:47;5.20;74.50
64843;DHT22;51310;52.198;5.422;2023-03-05T16:42:14;5.20;74.50
64843;DHT22;51310;52.198;5.422;2023-03-05T16:44:40;5.10;75.80
64843;DHT22;51310;52.198;5.422;2023-03-05T16:47:08;5.00;83.10
64843;DHT22;51310;52.198;5.422;2023-03-05T16:49:37;4.90;91.30
64843;DHT22;51310;52.198;5.422;2023-03-05T16:52:04;4.70;99.90
64843;DHT22;51310;52.198;5.422;2023-03-05T16:54:31;4.50;99.90
64843;DHT22;51310;52.198;5.422;2023-03-05T16:56:57;4.40;99.90
64843;DHT22;51310;52.198;5.422;2023-03-05T16:59:24;4.30;99.90
64843;DHT22;51310;52.198;5.422;2023-03-05T17:01:50;4.20;99.90
64843;DHT22;51310;52.198;5.422;2023-03-05T17:04:16;4.20;99.90
64843;DHT22;51310;52.198;5.422;2023-03-05T17:06:44;4.20;99.90
64843;DHT22;51310;52.198;5.422;2023-03-05T17:09:12;4.20;99.90